createdAt,value
2023-09-23T00:02:09.906Z,89.61
2023-09-23T00:04:39.365Z,89.84
2023-09-23T00:07:10.351Z,89.90
2023-09-23T00:09:39.387Z,89.73
2023-09-23T00:12:08.776Z,89.32
2023-09-23T00:14:38.025Z,89.39
2023-09-23T00:17:07.646Z,89.22
2023-09-23T00:19:36.643Z,89.10
2023-09-23T00:22:06.935Z,89.07
2023-09-23T00:24:38.043Z,89.50
2023-09-23T00:27:08.754Z,90.37
2023-09-23T00:29:38.819Z,89.46
2023-09-23T00:32:09.170Z,89.30
2023-09-23T00:34:38.800Z,88.99
2023-09-23T00:37:09.741Z,89.57
2023-09-23T00:39:43.598Z,89.80
2023-09-23T00:42:13.457Z,90.30
2023-09-23T00:44:42.515Z,90.33
2023-09-23T00:47:15.044Z,90.52
2023-09-23T00:49:45.958Z,90.17
2023-09-23T00:52:18.168Z,90.31
2023-09-23T00:54:51.036Z,90.06
2023-09-23T00:57:20.448Z,89.99
2023-09-23T00:59:49.407Z,89.93
2023-09-23T01:02:19.337Z,90.23
2023-09-23T01:04:48.503Z,90.17
2023-09-23T01:07:19.085Z,90.36
2023-09-23T01:09:49.589Z,90.53
2023-09-23T01:12:20.900Z,90.29
2023-09-23T01:14:50.085Z,90.63
2023-09-23T01:17:19.357Z,90.69
2023-09-23T01:19:49.060Z,90.63
2023-09-23T01:22:25.524Z,90.46
2023-09-23T01:24:54.717Z,90.72
2023-09-23T01:27:24.492Z,91.06
2023-09-23T01:29:55.046Z,91.21
2023-09-23T01:32:37.682Z,91.08
2023-09-23T01:35:08.179Z,91.24
2023-09-23T01:37:39.896Z,91.15
2023-09-23T01:40:10.421Z,91.15
2023-09-23T01:42:39.752Z,90.83
2023-09-23T01:45:11.331Z,91.05
2023-09-23T01:47:40.899Z,91.35
2023-09-23T01:50:11.857Z,91.34
2023-09-23T01:52:43.053Z,91.51
2023-09-23T01:55:13.619Z,91.74
2023-09-23T01:57:43.020Z,91.53
2023-09-23T02:00:19.293Z,91.20
2023-09-23T02:02:50.436Z,91.00
2023-09-23T02:05:20.160Z,90.92
2023-09-23T02:07:51.739Z,90.83
2023-09-23T02:10:22.521Z,90.56
2023-09-23T02:12:52.205Z,90.62
2023-09-23T02:15:21.551Z,90.47
2023-09-23T02:17:52.127Z,90.25
2023-09-23T02:20:23.502Z,90.49
2023-09-23T02:22:56.030Z,90.33
2023-09-23T02:25:26.747Z,90.57
2023-09-23T02:27:57.302Z,90.38
2023-09-23T02:30:26.327Z,90.46
2023-09-23T02:32:55.909Z,90.22
2023-09-23T02:35:26.796Z,90.08
2023-09-23T02:37:57.855Z,89.91
2023-09-23T02:40:28.633Z,90.05
2023-09-23T02:43:00.937Z,90.11
2023-09-23T02:45:30.149Z,90.18
2023-09-23T02:47:59.691Z,90.18
2023-09-23T02:50:28.853Z,90.29
2023-09-23T02:53:00.501Z,90.13
2023-09-23T02:55:29.646Z,90.51
2023-09-23T02:57:58.959Z,90.74
2023-09-23T03:00:31.504Z,91.06
2023-09-23T03:03:03.816Z,91.08
2023-09-23T03:05:39.923Z,91.00
2023-09-23T03:08:15.275Z,91.58
2023-09-23T03:10:46.091Z,91.08
2023-09-23T03:13:15.509Z,90.98
2023-09-23T03:15:51.009Z,90.82
2023-09-23T03:18:29.451Z,90.41
2023-09-23T03:21:05.144Z,90.20
2023-09-23T03:23:36.432Z,90.18
2023-09-23T03:26:05.899Z,90.24
2023-09-23T03:28:37.611Z,90.47
2023-09-23T03:31:09.964Z,90.56
2023-09-23T03:33:43.992Z,90.18
2023-09-23T03:36:17.326Z,90.57
2023-09-23T03:38:48.530Z,90.51
2023-09-23T03:41:17.935Z,90.73
2023-09-23T03:43:49.018Z,90.61
2023-09-23T03:46:19.070Z,91.12
2023-09-23T03:48:48.870Z,91.20
2023-09-23T03:51:19.007Z,91.69
2023-09-23T03:53:49.787Z,91.89
2023-09-23T03:56:19.421Z,91.94
2023-09-23T03:58:48.965Z,92.09
2023-09-23T04:01:18.257Z,92.01
2023-09-23T04:03:47.862Z,92.36
2023-09-23T04:06:16.859Z,92.26
2023-09-23T04:08:46.313Z,92.26
2023-09-23T04:11:17.398Z,92.58
2023-09-23T04:13:47.469Z,92.41
2023-09-23T04:16:16.961Z,92.66
2023-09-23T04:18:47.853Z,92.63
2023-09-23T04:21:18.939Z,92.29
2023-09-23T04:23:50.032Z,92.41
2023-09-23T04:26:22.952Z,92.40
2023-09-23T04:28:53.744Z,91.92
2023-09-23T04:31:26.133Z,92.01
2023-09-23T04:33:55.467Z,91.79
2023-09-23T04:36:24.539Z,91.37
2023-09-23T04:38:53.824Z,91.43
2023-09-23T04:41:24.231Z,91.18
2023-09-23T04:43:53.640Z,91.09
2023-09-23T04:46:22.837Z,91.13
2023-09-23T04:48:52.213Z,91.14
2023-09-23T04:51:21.231Z,90.94
2023-09-23T04:53:51.638Z,91.15
2023-09-23T04:56:20.483Z,91.58
2023-09-23T04:58:52.234Z,92.08
2023-09-23T05:01:21.365Z,92.60
2023-09-23T05:03:50.666Z,92.86
2023-09-23T05:06:19.752Z,92.95
2023-09-23T05:08:49.108Z,92.56
2023-09-23T05:11:18.829Z,92.46
2023-09-23T05:13:48.199Z,92.63
2023-09-23T05:16:18.683Z,92.75
2023-09-23T05:18:49.882Z,92.76
2023-09-23T05:21:19.908Z,93.12
2023-09-23T05:23:50.673Z,93.01
2023-09-23T05:26:20.541Z,93.20
2023-09-23T05:28:50.822Z,93.00
2023-09-23T05:31:21.624Z,93.47
2023-09-23T05:33:50.990Z,93.22
2023-09-23T05:36:21.481Z,93.01
2023-09-23T05:38:50.895Z,93.33
2023-09-23T05:41:25.231Z,93.15
2023-09-23T05:43:54.713Z,93.28
2023-09-23T05:46:25.177Z,92.66
2023-09-23T05:48:54.539Z,92.76
2023-09-23T05:51:23.484Z,92.55
2023-09-23T05:53:52.837Z,92.53
2023-09-23T05:56:21.860Z,92.44
2023-09-23T05:58:51.612Z,92.71
2023-09-23T06:01:21.113Z,92.29
2023-09-23T06:03:51.919Z,92.45
2023-09-23T06:06:21.082Z,92.16
2023-09-23T06:08:51.707Z,92.25
2023-09-23T06:11:21.374Z,91.98
2023-09-23T06:13:50.705Z,92.44
2023-09-23T06:16:19.744Z,92.31
2023-09-23T06:18:50.432Z,92.38
2023-09-23T06:21:19.998Z,92.16
2023-09-23T06:23:49.441Z,91.79
2023-09-23T06:26:18.583Z,91.51
2023-09-23T06:28:47.992Z,91.09
2023-09-23T06:31:17.118Z,91.37
2023-09-23T06:33:46.874Z,91.51
2023-09-23T06:36:17.373Z,91.09
2023-09-23T06:38:46.762Z,91.43
2023-09-23T06:41:15.830Z,91.01
2023-09-23T06:43:45.928Z,90.87
2023-09-23T06:46:15.554Z,90.92
2023-09-23T06:48:44.876Z,90.78
2023-09-23T06:51:13.923Z,90.22
2023-09-23T06:53:46.802Z,90.81
2023-09-23T06:56:16.285Z,90.56
2023-09-23T06:58:45.873Z,90.18
2023-09-23T07:01:14.924Z,90.23
2023-09-23T07:03:44.431Z,90.25
2023-09-23T07:06:13.641Z,90.35
2023-09-23T07:08:44.652Z,89.97
2023-09-23T07:11:16.917Z,89.43
2023-09-23T07:13:47.872Z,89.63
2023-09-23T07:16:17.434Z,89.71
2023-09-23T07:18:47.224Z,89.17
2023-09-23T07:21:16.257Z,88.74
2023-09-23T07:23:47.076Z,88.60
2023-09-23T07:26:22.611Z,89.14
2023-09-23T07:28:52.461Z,89.02
2023-09-23T07:31:21.791Z,89.40
2023-09-23T07:33:51.170Z,88.83
2023-09-23T07:36:20.358Z,89.02
2023-09-23T07:38:51.043Z,88.57
2023-09-23T07:41:20.107Z,87.68
2023-09-23T07:43:50.728Z,87.97
2023-09-23T07:46:20.052Z,87.62
2023-09-23T07:48:49.382Z,87.73
2023-09-23T07:51:18.398Z,87.81
2023-09-23T07:53:48.761Z,84.64
2023-09-23T07:56:19.410Z,84.54
2023-09-23T07:58:48.841Z,84.50
2023-09-23T08:01:18.571Z,83.13
2023-09-23T08:03:47.911Z,82.04
2023-09-23T08:06:17.050Z,82.16
2023-09-23T08:08:46.311Z,83.17
2023-09-23T08:11:15.903Z,81.66
2023-09-23T08:13:48.404Z,80.86
2023-09-23T08:16:18.076Z,80.64
2023-09-23T08:18:47.484Z,80.57
2023-09-23T08:21:16.663Z,79.57
2023-09-23T08:23:46.452Z,80.52
2023-09-23T08:26:15.863Z,80.44
2023-09-23T08:28:46.658Z,80.77
2023-09-23T08:31:18.077Z,80.61
2023-09-23T08:33:47.853Z,80.41
2023-09-23T08:36:17.065Z,80.66
2023-09-23T08:38:47.164Z,79.73
2023-09-23T08:41:21.319Z,78.96
2023-09-23T08:43:53.944Z,78.96
2023-09-23T08:46:23.962Z,79.79
2023-09-23T08:48:53.346Z,79.86
2023-09-23T08:51:25.601Z,79.72
2023-09-23T08:53:55.913Z,79.85
2023-09-23T08:56:25.067Z,79.88
2023-09-23T08:58:55.829Z,78.78
2023-09-23T09:01:25.101Z,78.15
2023-09-23T09:03:54.782Z,78.69
2023-09-23T09:06:30.941Z,78.52
2023-09-23T09:09:01.034Z,78.08
2023-09-23T09:11:30.050Z,78.12
2023-09-23T09:14:00.720Z,78.12
2023-09-23T09:16:31.082Z,78.06
2023-09-23T09:19:00.465Z,78.35
2023-09-23T09:21:29.539Z,78.67
2023-09-23T09:23:58.913Z,77.61
2023-09-23T09:26:27.977Z,77.17
2023-09-23T09:28:57.370Z,77.26
2023-09-23T09:31:34.060Z,77.19
2023-09-23T09:34:09.555Z,77.66
2023-09-23T09:36:40.865Z,77.77
2023-09-23T09:39:14.085Z,76.96
2023-09-23T09:41:50.016Z,77.38
2023-09-23T09:44:22.485Z,77.00
2023-09-23T09:46:56.115Z,75.97
2023-09-23T09:49:26.552Z,75.43
2023-09-23T09:51:55.972Z,74.33
2023-09-23T09:54:27.399Z,74.24
2023-09-23T09:56:57.471Z,73.77
2023-09-23T09:59:34.607Z,74.17
2023-09-23T10:02:06.202Z,72.97
2023-09-23T10:04:36.307Z,73.30
2023-09-23T10:07:09.435Z,72.42
2023-09-23T10:09:40.805Z,72.63
2023-09-23T10:12:11.024Z,72.83
2023-09-23T10:14:40.294Z,72.55
2023-09-23T10:17:12.182Z,70.87
2023-09-23T10:19:43.780Z,70.24
2023-09-23T10:22:18.499Z,69.67
2023-09-23T10:24:48.386Z,69.90
2023-09-23T10:27:25.359Z,70.25
2023-09-23T10:29:56.223Z,69.58
2023-09-23T10:32:29.637Z,70.52
2023-09-23T10:35:00.186Z,68.19
2023-09-23T10:37:31.189Z,68.14
2023-09-23T10:40:10.425Z,67.84
2023-09-23T10:42:39.964Z,67.17
2023-09-23T10:45:11.432Z,68.07
2023-09-23T10:47:45.229Z,67.80
2023-09-23T10:50:15.374Z,68.16
2023-09-23T10:52:44.769Z,68.71
2023-09-23T10:55:14.050Z,67.32
2023-09-23T10:57:44.223Z,67.96
2023-09-23T11:00:21.666Z,68.24
2023-09-23T11:02:56.143Z,68.05
2023-09-23T11:05:26.634Z,67.94
2023-09-23T11:07:57.615Z,68.38
2023-09-23T11:10:29.303Z,68.38
2023-09-23T11:12:59.591Z,68.23
2023-09-23T11:15:31.585Z,67.67
2023-09-23T11:18:03.510Z,67.73
2023-09-23T11:20:33.933Z,67.82
2023-09-23T11:23:04.918Z,68.01
2023-09-23T11:25:38.822Z,67.38
2023-09-23T11:28:08.002Z,67.41
2023-09-23T11:30:37.404Z,67.87
2023-09-23T11:33:08.069Z,67.98
2023-09-23T11:35:37.533Z,68.06
2023-09-23T11:38:06.835Z,68.30
2023-09-23T11:40:36.482Z,68.36
2023-09-23T11:43:06.716Z,68.50
2023-09-23T11:45:36.538Z,68.04
2023-09-23T11:48:09.412Z,68.55
2023-09-23T11:50:39.360Z,67.42
2023-09-23T11:53:08.669Z,67.89
2023-09-23T11:55:38.141Z,67.60
2023-09-23T11:58:07.326Z,67.52
2023-09-23T12:00:36.722Z,66.98
2023-09-23T12:03:07.640Z,66.69
2023-09-23T12:05:37.158Z,67.30
2023-09-23T12:08:06.564Z,67.26
2023-09-23T12:10:36.079Z,66.27
2023-09-23T12:13:06.769Z,66.45
2023-09-23T12:15:36.378Z,66.71
2023-09-23T12:18:07.476Z,66.20
2023-09-23T12:20:36.870Z,66.10
2023-09-23T12:23:05.963Z,65.76
2023-09-23T12:25:35.364Z,66.03
2023-09-23T12:28:05.332Z,64.85
2023-09-23T12:30:35.564Z,65.07
2023-09-23T12:33:04.662Z,65.60
2023-09-23T12:35:35.369Z,65.44
2023-09-23T12:38:04.458Z,65.80
2023-09-23T12:40:34.418Z,64.99
2023-09-23T12:43:03.680Z,65.80
2023-09-23T12:45:33.011Z,64.91
2023-09-23T12:48:02.194Z,64.82
2023-09-23T12:50:31.761Z,65.23
2023-09-23T12:53:02.850Z,65.59
2023-09-23T12:55:32.316Z,66.00
2023-09-23T12:58:01.290Z,65.32
2023-09-23T13:00:30.919Z,65.27
2023-09-23T13:02:59.980Z,65.75
2023-09-23T13:05:29.503Z,65.59
2023-09-23T13:07:58.506Z,66.41
2023-09-23T13:10:29.282Z,66.27
2023-09-23T13:12:58.300Z,64.94
2023-09-23T13:15:28.191Z,65.14
2023-09-23T13:17:57.953Z,63.76
2023-09-23T13:20:27.451Z,63.25
2023-09-23T13:22:56.483Z,63.41
2023-09-23T13:25:26.707Z,64.04
2023-09-23T13:27:56.859Z,63.83
2023-09-23T13:30:26.202Z,63.99
2023-09-23T13:32:55.441Z,64.06
2023-09-23T13:35:25.149Z,63.64
2023-09-23T13:37:54.124Z,62.78
2023-09-23T13:40:23.511Z,62.93
2023-09-23T13:42:52.517Z,62.52
2023-09-23T13:45:23.270Z,63.09
2023-09-23T13:47:52.427Z,62.96
2023-09-23T13:50:21.882Z,62.79
2023-09-23T13:52:50.940Z,62.99
2023-09-23T13:55:20.411Z,63.18
2023-09-23T13:57:49.421Z,63.74
2023-09-23T14:00:19.085Z,64.12
2023-09-23T14:02:49.550Z,64.50
2023-09-23T14:05:19.154Z,63.77
2023-09-23T14:07:48.457Z,63.97
2023-09-23T14:10:22.101Z,63.38
2023-09-23T14:12:52.033Z,63.28
2023-09-23T14:15:21.871Z,63.09
2023-09-23T14:17:53.127Z,63.45
2023-09-23T14:20:22.696Z,63.42
2023-09-23T14:22:52.202Z,63.63
2023-09-23T14:25:24.330Z,63.41
2023-09-23T14:27:53.536Z,63.76
2023-09-23T14:30:22.796Z,63.91
2023-09-23T14:32:53.698Z,64.36
2023-09-23T14:35:23.240Z,64.48
2023-09-23T14:37:52.484Z,64.38
2023-09-23T14:40:21.950Z,64.54
2023-09-23T14:42:50.910Z,64.86
2023-09-23T14:45:20.491Z,64.75
2023-09-23T14:47:49.874Z,65.41
2023-09-23T14:50:22.665Z,65.17
2023-09-23T14:52:52.902Z,65.65
2023-09-23T14:55:23.255Z,66.21
2023-09-23T14:57:52.195Z,66.36
2023-09-23T15:00:21.582Z,66.25
2023-09-23T15:02:50.740Z,66.08
2023-09-23T15:05:22.561Z,65.87
2023-09-23T15:07:51.676Z,66.32
2023-09-23T15:10:21.104Z,64.92
2023-09-23T15:12:50.298Z,64.35
2023-09-23T15:15:21.060Z,64.39
2023-09-23T15:17:50.366Z,64.42
2023-09-23T15:20:21.211Z,63.84
2023-09-23T15:22:50.758Z,63.30
2023-09-23T15:25:20.541Z,63.85
2023-09-23T15:27:49.658Z,63.79
2023-09-23T15:30:19.241Z,63.70
2023-09-23T15:32:48.352Z,64.21
2023-09-23T15:35:19.648Z,64.40
2023-09-23T15:37:50.145Z,64.41
2023-09-23T15:40:19.628Z,64.79
2023-09-23T15:42:49.153Z,64.44
2023-09-23T15:45:18.625Z,64.33
2023-09-23T15:47:47.630Z,63.92
2023-09-23T15:50:17.139Z,63.95
2023-09-23T15:52:46.448Z,64.00
2023-09-23T15:55:19.284Z,64.39
2023-09-23T15:57:48.295Z,64.62
2023-09-23T16:00:18.095Z,64.34
2023-09-23T16:02:47.388Z,64.30
2023-09-23T16:05:16.894Z,64.39
2023-09-23T16:07:46.026Z,64.60
2023-09-23T16:10:16.801Z,64.80
2023-09-23T16:12:45.838Z,65.02
2023-09-23T16:15:15.186Z,65.22
2023-09-23T16:17:44.329Z,65.38
2023-09-23T16:20:14.119Z,65.57
2023-09-23T16:22:43.202Z,66.25
2023-09-23T16:25:12.471Z,66.13
2023-09-23T16:27:44.681Z,66.41
2023-09-23T16:30:14.710Z,66.78
2023-09-23T16:32:43.807Z,66.87
2023-09-23T16:35:13.506Z,66.95
2023-09-23T16:37:44.570Z,66.90
2023-09-23T16:40:14.612Z,67.49
2023-09-23T16:42:47.380Z,68.26
2023-09-23T16:45:16.853Z,67.56
2023-09-23T16:47:46.620Z,67.55
2023-09-23T16:50:16.425Z,67.69
2023-09-23T16:52:45.612Z,68.03
2023-09-23T16:55:16.771Z,68.21
2023-09-23T16:57:48.964Z,68.42
2023-09-23T17:00:19.160Z,68.65
2023-09-23T17:02:48.663Z,68.86
2023-09-23T17:05:18.889Z,69.17
2023-09-23T17:07:47.937Z,69.68
2023-09-23T17:10:17.265Z,69.57
2023-09-23T17:12:47.775Z,70.42
2023-09-23T17:15:17.171Z,69.90
2023-09-23T17:17:46.313Z,70.58
2023-09-23T17:20:16.305Z,70.56
2023-09-23T17:22:45.516Z,70.60
2023-09-23T17:25:14.816Z,70.91
2023-09-23T17:27:43.845Z,70.73
2023-09-23T17:30:15.162Z,70.76
2023-09-23T17:32:44.502Z,71.26
2023-09-23T17:35:14.169Z,72.18
2023-09-23T17:37:43.754Z,72.08
2023-09-23T17:40:15.190Z,71.59
2023-09-23T17:42:44.320Z,71.84
2023-09-23T17:45:15.051Z,72.18
2023-09-23T17:47:44.232Z,71.83
2023-09-23T17:50:13.689Z,71.91
2023-09-23T17:52:42.788Z,71.86
2023-09-23T17:55:12.309Z,71.62
2023-09-23T17:57:42.122Z,71.52
2023-09-23T18:00:13.894Z,71.51
2023-09-23T18:02:44.494Z,70.98
2023-09-23T18:05:14.226Z,71.25
2023-09-23T18:07:43.916Z,71.11
2023-09-23T18:10:13.423Z,71.01
2023-09-23T18:12:42.498Z,70.85
2023-09-23T18:15:14.111Z,70.73
2023-09-23T18:17:44.614Z,70.66
2023-09-23T18:20:15.596Z,70.88
2023-09-23T18:22:46.448Z,71.06
2023-09-23T18:25:16.137Z,70.83
2023-09-23T18:27:45.277Z,70.76
2023-09-23T18:30:15.827Z,70.56
2023-09-23T18:32:46.635Z,70.60
2023-09-23T18:35:16.319Z,70.80
2023-09-23T18:37:49.120Z,70.65
2023-09-23T18:40:18.636Z,71.11
2023-09-23T18:42:47.778Z,70.78
2023-09-23T18:45:17.335Z,70.88
2023-09-23T18:47:48.142Z,70.91
2023-09-23T18:50:18.485Z,71.17
2023-09-23T18:52:47.622Z,71.75
2023-09-23T18:55:17.448Z,71.79
2023-09-23T18:57:46.468Z,71.99
2023-09-23T19:00:16.575Z,72.54
2023-09-23T19:02:47.219Z,72.33
2023-09-23T19:05:17.031Z,73.06
2023-09-23T19:07:46.132Z,73.01
2023-09-23T19:10:15.557Z,73.08
2023-09-23T19:12:44.609Z,73.37
2023-09-23T19:15:16.976Z,73.17
2023-09-23T19:17:47.626Z,73.28
2023-09-23T19:20:18.098Z,73.55
2023-09-23T19:22:48.384Z,73.67
2023-09-23T19:25:17.924Z,73.53
2023-09-23T19:27:49.875Z,73.93
2023-09-23T19:30:19.257Z,74.20
2023-09-23T19:32:50.968Z,74.34
2023-09-23T19:35:21.096Z,74.31
2023-09-23T19:37:50.879Z,74.54
2023-09-23T19:40:21.926Z,75.23
2023-09-23T19:42:51.626Z,74.97
2023-09-23T19:45:21.115Z,75.08
2023-09-23T19:47:51.697Z,75.41
2023-09-23T19:50:21.341Z,75.24
2023-09-23T19:52:50.505Z,75.24
2023-09-23T19:55:20.592Z,75.40
2023-09-23T19:57:49.749Z,75.43
2023-09-23T20:00:20.220Z,75.52
2023-09-23T20:02:50.897Z,75.63
2023-09-23T20:05:20.714Z,76.63
2023-09-23T20:07:49.770Z,76.32
2023-09-23T20:10:19.150Z,76.44
2023-09-23T20:12:48.204Z,76.58
2023-09-23T20:15:19.036Z,76.51
2023-09-23T20:17:51.896Z,76.60
2023-09-23T20:20:21.560Z,76.61
2023-09-23T20:22:50.878Z,77.02
2023-09-23T20:25:20.819Z,76.71
2023-09-23T20:27:49.922Z,76.43
2023-09-23T20:30:19.653Z,76.36
2023-09-23T20:32:50.286Z,76.80
2023-09-23T20:35:21.297Z,76.75
2023-09-23T20:37:50.667Z,77.88
2023-09-23T20:40:22.212Z,77.52
2023-09-23T20:42:51.793Z,77.08
2023-09-23T20:45:21.758Z,77.22
2023-09-23T20:47:52.348Z,77.29
2023-09-23T20:50:23.007Z,77.61
2023-09-23T20:52:52.196Z,77.95
2023-09-23T20:55:21.525Z,77.26
2023-09-23T20:57:50.566Z,76.93
2023-09-23T21:00:20.769Z,77.44
2023-09-23T21:02:51.252Z,77.89
2023-09-23T21:05:22.295Z,78.26
2023-09-23T21:07:52.314Z,77.68
2023-09-23T21:10:21.887Z,78.05
2023-09-23T21:12:50.972Z,78.08
2023-09-23T21:15:20.540Z,78.65
2023-09-23T21:17:51.070Z,78.53
2023-09-23T21:20:20.595Z,78.77
2023-09-23T21:22:49.618Z,78.98
2023-09-23T21:25:19.220Z,79.32
2023-09-23T21:27:48.266Z,78.79
2023-09-23T21:30:19.603Z,78.82
2023-09-23T21:32:49.032Z,79.24
2023-09-23T21:35:19.960Z,78.92
2023-09-23T21:37:49.087Z,79.06
2023-09-23T21:40:18.801Z,78.99
2023-09-23T21:42:47.880Z,79.30
2023-09-23T21:45:17.178Z,79.15
2023-09-23T21:47:46.420Z,79.68
2023-09-23T21:50:15.888Z,79.53
2023-09-23T21:52:46.258Z,79.61
2023-09-23T21:55:15.834Z,79.17
2023-09-23T21:57:44.837Z,78.88
2023-09-23T22:00:27.530Z,79.32
2023-09-23T22:02:59.664Z,79.45
2023-09-23T22:05:32.228Z,80.33
2023-09-23T22:08:04.944Z,80.06
2023-09-23T22:10:34.737Z,79.90
2023-09-23T22:13:04.523Z,80.25
2023-09-23T22:15:34.899Z,80.87
2023-09-23T22:18:04.789Z,80.54
2023-09-23T22:20:34.217Z,80.33
2023-09-23T22:23:05.799Z,80.70
2023-09-23T22:25:35.171Z,81.00
2023-09-23T22:28:04.609Z,81.26
2023-09-23T22:30:34.013Z,81.19
2023-09-23T22:33:03.083Z,80.84
2023-09-23T22:35:33.881Z,80.89
2023-09-23T22:38:04.647Z,80.80
2023-09-23T22:40:34.011Z,81.34
2023-09-23T22:43:03.030Z,81.24
2023-09-23T22:45:39.278Z,81.71
2023-09-23T22:48:09.841Z,82.40
2023-09-23T22:50:41.491Z,81.83
2023-09-23T22:53:12.524Z,81.83
2023-09-23T22:55:41.835Z,81.52
2023-09-23T22:58:11.187Z,81.82
2023-09-23T23:00:40.785Z,81.89
2023-09-23T23:03:13.728Z,81.59
2023-09-23T23:05:44.322Z,81.56
2023-09-23T23:08:14.767Z,81.59
2023-09-23T23:10:44.202Z,81.39
2023-09-23T23:13:13.232Z,81.97
2023-09-23T23:15:42.672Z,82.31
2023-09-23T23:18:11.952Z,82.29
2023-09-23T23:20:41.541Z,81.25
2023-09-23T23:23:10.499Z,81.55
2023-09-23T23:25:41.193Z,82.04
2023-09-23T23:28:10.886Z,81.95
2023-09-23T23:30:42.195Z,81.42
2023-09-23T23:33:11.649Z,81.44
2023-09-23T23:35:41.680Z,81.63
2023-09-23T23:38:12.820Z,81.07
2023-09-23T23:40:43.798Z,81.19
2023-09-23T23:43:14.328Z,81.11
2023-09-23T23:45:43.840Z,81.19
2023-09-23T23:48:13.361Z,81.37
2023-09-23T23:50:43.989Z,81.29
2023-09-23T23:53:13.060Z,81.29
2023-09-23T23:55:43.706Z,81.57
2023-09-23T23:58:14.050Z,81.40
